INDIA METEOROLOGICAL DEPARTMENT, R.M.C. NEW DELHI
Dated:30 - 4 - 2016
METARS


Agartala   
VEAT 300300Z 18005KT 5000 BR FEW010 SCT020 32/27 Q1008 NOSIG=
Ahmedabad  
VAAH 300300Z 29004KT 4000 FU NSC 31/20 Q1009 NOSIG=
Amritsar   
VIAR 300300Z 00000KT 2500 DU NSC 28/10 Q1007 NOSIG=
Bangalore  
COR VOBL 300300Z 30035KT 8000 NSC 32/25 Q1017 NOSIG=
Bhubaneswar
VEBS 300300Z 22012KT 5000 HZ SCT018 BKN100 32/22 Q1008 NOSIG =
Bhuntar    
VIBR 300300Z 00000KT 8000 NSC 15/10 Q1016=
Chennai    
VOMM 300300Z 20007KT 6000 SCT020 31/26 Q1009 NOSIG=
Coimbatore 
VOCB 300300Z VRB02KT 4000 HZ FEW015 29/23 Q1013 NOSIG=
Delhi      
VIDP 300300Z 27004KT 1300 R28/2000 R29/2000 DU NSC 29/04 Q1008 NOSIG=
Dehradun   
VIDN 300230Z 01004KT 2500 FU NSC 24/08 Q1008 =
Gauhati    
VEGT 300300Z 01010KT 4000 HZ FEW020 SCT100 28/22 Q1008 NOSIG=
Gaya       
VEGY 300300Z NIL=
Fursatganj
VERB 300300Z VRB02KT 3000 HZ FEW100 32/14 Q1004=
Hyderabad  
VOHS 300300Z 10005KT 5000 HZ FEW020 SCT100 34/14 Q1014 BECMG 6000=
Imphal     
VEIM 300300Z 00000KT 4000 HZ FEW018 SCT100 27/22 Q1013 NOSIG =
Indore     
VAID 300300Z 27012KT 6000 NSC 31/12 Q1012 NOSIG=
Jaipur     
VIJP 300300Z VRB03KT 3000 HZ NSC 34/00 Q1009 NOSIG=
Kochi      
VOCI 300300Z 11004KT 3000 HZ FEW015 FEW020TCU 30/27 Q1011 NOSIG=
Kolkata    
VECC 300300Z 18003KT 3500 HZ FEW020 33/24 Q1006 NOSIG=
Kozhikode  
VOCL 300300Z 36003KT 7000 NSC 33/25 Q1011 NOSIG=
Lucknow    
VILK 300230Z 00000KT 4000 HZ FEW020 SCT100 32/09 Q1005 NOSIG=
Madurai    
VOMD 300300Z 00000KT 6000 FEW020 32/23 Q1011 NOSIG=
Mumbai     
VABB 300130Z 12003KT 3000 BR SCT020 28/25 Q1009 NOSIG=
Patna      
VEPT 300300Z 23009KT 4000 HZ FEW020 SCT100 34/11 Q1005 NOSIG=
Raipur     
SPECI VERP 300300Z 15006KT 5000 HZ FEW020 BKN100 26/21 Q1011 BECMG 6000=
Safdarjung
VIDD 300300Z 27005KT 1500 DU NSC 28/11 Q1007 NOSIG=
Ranchi     
VERC 300300Z 26007KT 5000 HZ FEW020 SCT100 30/13 Q1012 NOSIG=
Trichy     
VOTR 300300Z 00000KT 4000 HZ FEW016 32/23 Q1010 NOSIG=
Trivandrum 
VOTV 300300Z VRB02KT 4000 HZ FEW018 FEW025TCU 32/26 Q1010 BECMG 6000=
Udaipur    
VAUD 300300Z 00000KT 6000 NSC 31/09 Q1010 NOSIG =
Varanasi   
VEBN 300300Z 09002KT 3000 HZ FEW100 33/13 Q1006=
Vizag      
VOVZ 300300Z 23010KT 5000 HZ FEW016 32/27 Q1009 BECMG 6000=
Kathmandu   
VNKT 300300Z NIL=
Dhaka      
VGHS 300300Z 18012KT 5000 HZ SCT015 31/24 Q1007 NOSIG=
Karachi     
OPKC 300125Z 25005KT 6000 FEW020 26/23 Q1007 NOSIG=
Lahore      
OPLA 300130Z 00000KT 2000 HZ NSC 24/11 Q1007=
Leh        
VILH 300130Z VRB02KT 6000 FAIR FEW150 04/M15 Q1030 NOSIG RMK AC=
Thoise     
VITX 300230Z 09004KT 6000 NSC 10/M11 Q1032 RMK AC=
Bagdogra   
VEBD 300230Z 06009KT 6000 FEW250 28/23 Q1007 TEMPO 07015G25KT=